sensor_id;sensor_type;location;lat;lon;timestamp;pressure;altitude;pressure_sealevel;temperature;humidity
55550;BME280;41397;49.972;18.944;2022-07-04T00:03:35;102004.36;;;22.88;63.20
55550;BME280;41397;49.972;18.944;2022-07-04T00:08:49;102005.43;;;22.87;63.13
55550;BME280;41397;49.972;18.944;2022-07-04T00:14:02;102007.31;;;22.86;63.96
55550;BME280;41397;49.972;18.944;2022-07-04T00:19:16;102009.07;;;22.87;64.01
55550;BME280;41397;49.972;18.944;2022-07-04T00:20:06;102012.73;;;22.88;63.97
55550;BME280;41397;49.972;18.944;2022-07-04T00:24:29;102000.71;;;22.87;63.36
55550;BME280;41397;49.972;18.944;2022-07-04T00:29:43;102012.90;;;22.86;63.55
55550;BME280;41397;49.972;18.944;2022-07-04T00:34:57;102013.62;;;22.80;63.84
55550;BME280;41397;49.972;18.944;2022-07-04T00:40:11;102013.82;;;22.78;64.54
55550;BME280;41397;49.972;18.944;2022-07-04T00:45:25;102013.10;;;22.76;64.48
55550;BME280;41397;49.972;18.944;2022-07-04T00:50:20;102010.67;;;22.73;64.62
55550;BME280;41397;49.972;18.944;2022-07-04T00:50:38;102007.34;;;22.70;64.60
55550;BME280;41397;49.972;18.944;2022-07-04T00:55:55;102000.74;;;22.71;64.81
55550;BME280;41397;49.972;18.944;2022-07-04T01:01:09;102002.66;;;22.70;64.88
55550;BME280;41397;49.972;18.944;2022-07-04T01:06:24;101986.80;;;22.63;65.01
55550;BME280;41397;49.972;18.944;2022-07-04T01:11:37;101998.32;;;22.59;65.14
55550;BME280;41397;49.972;18.944;2022-07-04T01:16:51;102009.99;;;22.55;65.24
55550;BME280;41397;49.972;18.944;2022-07-04T01:20:36;102005.12;;;22.49;65.31
55550;BME280;41397;49.972;18.944;2022-07-04T01:22:06;102001.63;;;22.47;65.33
55550;BME280;41397;49.972;18.944;2022-07-04T01:27:20;101998.48;;;22.42;65.55
55550;BME280;41397;49.972;18.944;2022-07-04T01:32:34;102004.42;;;22.38;65.30
55550;BME280;41397;49.972;18.944;2022-07-04T01:37:48;101991.00;;;22.34;65.29
55550;BME280;41397;49.972;18.944;2022-07-04T01:43:02;101989.77;;;22.28;65.78
55550;BME280;41397;49.972;18.944;2022-07-04T01:48:16;101995.20;;;22.22;65.79
55550;BME280;41397;49.972;18.944;2022-07-04T01:50:50;102007.36;;;22.21;66.01
55550;BME280;41397;49.972;18.944;2022-07-04T01:53:30;101999.86;;;22.13;66.19
55550;BME280;41397;49.972;18.944;2022-07-04T01:58:43;102017.95;;;22.09;66.09
55550;BME280;41397;49.972;18.944;2022-07-04T02:03:59;102026.81;;;22.04;66.13
55550;BME280;41397;49.972;18.944;2022-07-04T02:09:13;102017.08;;;22.00;66.05
55550;BME280;41397;49.972;18.944;2022-07-04T02:14:30;102021.22;;;21.96;65.98
55550;BME280;41397;49.972;18.944;2022-07-04T02:19:44;102011.49;;;21.92;65.76
55550;BME280;41397;49.972;18.944;2022-07-04T02:21:04;102004.34;;;21.89;66.48
55550;BME280;41397;49.972;18.944;2022-07-04T02:24:58;102000.48;;;21.82;66.54
55550;BME280;41397;49.972;18.944;2022-07-04T02:30:14;102014.75;;;21.79;66.53
55550;BME280;41397;49.972;18.944;2022-07-04T02:35:31;102003.09;;;21.76;66.64
55550;BME280;41397;49.972;18.944;2022-07-04T02:40:48;102018.08;;;21.75;66.72
55550;BME280;41397;49.972;18.944;2022-07-04T02:46:05;102020.15;;;21.72;66.83
55550;BME280;41397;49.972;18.944;2022-07-04T02:51:17;102006.57;;;21.69;66.72
55550;BME280;41397;49.972;18.944;2022-07-04T02:51:31;102012.29;;;21.68;66.69
55550;BME280;41397;49.972;18.944;2022-07-04T02:56:45;102002.55;;;21.64;67.06
55550;BME280;41397;49.972;18.944;2022-07-04T03:01:59;102000.11;;;21.61;66.68
55550;BME280;41397;49.972;18.944;2022-07-04T03:07:12;102005.15;;;21.65;66.61
55550;BME280;41397;49.972;18.944;2022-07-04T03:12:26;102017.56;;;21.87;66.46
55550;BME280;41397;49.972;18.944;2022-07-04T03:17:40;102014.70;;;22.22;65.94
55550;BME280;41397;49.972;18.944;2022-07-04T03:21:31;102017.85;;;22.51;65.13
55550;BME280;41397;49.972;18.944;2022-07-04T03:22:53;102008.93;;;22.64;64.90
55550;BME280;41397;49.972;18.944;2022-07-04T03:28:07;102018.65;;;23.09;63.77
55550;BME280;41397;49.972;18.944;2022-07-04T03:33:21;102025.11;;;23.57;61.97
55550;BME280;41397;49.972;18.944;2022-07-04T03:38:35;102019.98;;;24.00;60.79
55550;BME280;41397;49.972;18.944;2022-07-04T03:43:48;102028.28;;;24.40;59.61
55550;BME280;41397;49.972;18.944;2022-07-04T03:49:02;102025.53;;;24.92;58.27
55550;BME280;41397;49.972;18.944;2022-07-04T03:51:46;102026.42;;;25.08;58.00
55550;BME280;41397;49.972;18.944;2022-07-04T03:54:16;102022.39;;;25.25;57.46
55550;BME280;41397;49.972;18.944;2022-07-04T03:59:36;102019.26;;;25.64;56.08
55550;BME280;41397;49.972;18.944;2022-07-04T04:04:49;102023.98;;;26.15;54.81
55550;BME280;41397;49.972;18.944;2022-07-04T04:10:15;102019.33;;;26.44;54.38
55550;BME280;41397;49.972;18.944;2022-07-04T04:15:29;102009.27;;;26.77;53.77
55550;BME280;41397;49.972;18.944;2022-07-04T04:20:43;102002.89;;;27.18;53.11
55550;BME280;41397;49.972;18.944;2022-07-04T04:22:00;102008.54;;;27.25;52.92
55550;BME280;41397;49.972;18.944;2022-07-04T04:25:56;102017.34;;;27.50;52.84
55550;BME280;41397;49.972;18.944;2022-07-04T04:31:10;102022.17;;;27.70;52.45
55550;BME280;41397;49.972;18.944;2022-07-04T04:36:27;102024.47;;;27.94;52.57
55550;BME280;41397;49.972;18.944;2022-07-04T04:41:44;102028.81;;;28.10;53.06
55550;BME280;41397;49.972;18.944;2022-07-04T04:46:57;102027.55;;;28.19;53.13
55550;BME280;41397;49.972;18.944;2022-07-04T04:52:11;102019.37;;;28.38;52.75
55550;BME280;41397;49.972;18.944;2022-07-04T04:52:24;102010.03;;;28.37;52.93
55550;BME280;41397;49.972;18.944;2022-07-04T04:57:24;102018.52;;;28.50;53.15
55550;BME280;41397;49.972;18.944;2022-07-04T05:02:38;102016.35;;;28.86;52.16
55550;BME280;41397;49.972;18.944;2022-07-04T05:07:52;102010.92;;;29.17;51.92
55550;BME280;41397;49.972;18.944;2022-07-04T05:13:06;102025.20;;;29.29;50.96
55550;BME280;41397;49.972;18.944;2022-07-04T05:18:19;102013.17;;;29.67;51.03
55550;BME280;41397;49.972;18.944;2022-07-04T05:22:38;102026.80;;;29.77;50.73
55550;BME280;41397;49.972;18.944;2022-07-04T05:23:33;102027.88;;;29.76;50.83
55550;BME280;41397;49.972;18.944;2022-07-04T05:28:47;102041.46;;;29.99;50.18
55550;BME280;41397;49.972;18.944;2022-07-04T05:34:00;102046.76;;;30.20;49.84
55550;BME280;41397;49.972;18.944;2022-07-04T05:39:15;102032.57;;;30.34;49.82
55550;BME280;41397;49.972;18.944;2022-07-04T05:44:29;102022.93;;;30.48;49.72
55550;BME280;41397;49.972;18.944;2022-07-04T05:49:46;102018.21;;;30.67;49.16
55550;BME280;41397;49.972;18.944;2022-07-04T05:52:52;102009.02;;;30.71;48.50
55550;BME280;41397;49.972;18.944;2022-07-04T05:54:59;102004.62;;;30.82;48.28
55550;BME280;41397;49.972;18.944;2022-07-04T06:00:13;101997.68;;;31.03;48.14
55550;BME280;41397;49.972;18.944;2022-07-04T06:05:27;102000.92;;;31.25;47.03
55550;BME280;41397;49.972;18.944;2022-07-04T06:10:41;101997.14;;;31.31;45.14
55550;BME280;41397;49.972;18.944;2022-07-04T06:15:55;101994.13;;;31.51;45.55
55550;BME280;41397;49.972;18.944;2022-07-04T06:21:09;102008.53;;;31.80;45.60
55550;BME280;41397;49.972;18.944;2022-07-04T06:23:07;102011.73;;;31.83;44.32
55550;BME280;41397;49.972;18.944;2022-07-04T06:26:23;102016.39;;;31.96;44.37
55550;BME280;41397;49.972;18.944;2022-07-04T06:31:37;102016.73;;;32.18;44.40
55550;BME280;41397;49.972;18.944;2022-07-04T06:36:51;102012.16;;;32.47;43.56
55550;BME280;41397;49.972;18.944;2022-07-04T06:42:07;102025.85;;;32.62;43.58
55550;BME280;41397;49.972;18.944;2022-07-04T06:47:21;102015.27;;;32.93;43.17
55550;BME280;41397;49.972;18.944;2022-07-04T06:52:35;102022.70;;;33.18;42.04
55550;BME280;41397;49.972;18.944;2022-07-04T06:53:21;102023.32;;;33.20;41.78
55550;BME280;41397;49.972;18.944;2022-07-04T06:57:51;102022.93;;;33.28;41.45
55550;BME280;41397;49.972;18.944;2022-07-04T07:03:05;102033.80;;;33.43;42.57
55550;BME280;41397;49.972;18.944;2022-07-04T07:08:19;102028.97;;;33.43;42.32
55550;BME280;41397;49.972;18.944;2022-07-04T07:13:33;102018.36;;;33.62;42.23
55550;BME280;41397;49.972;18.944;2022-07-04T07:18:46;102022.90;;;33.63;41.43
55550;BME280;41397;49.972;18.944;2022-07-04T07:23:38;102013.55;;;33.51;40.42
55550;BME280;41397;49.972;18.944;2022-07-04T07:24:02;102012.42;;;33.52;40.80
55550;BME280;41397;49.972;18.944;2022-07-04T07:29:17;102018.41;;;33.79;41.70
55550;BME280;41397;49.972;18.944;2022-07-04T07:34:31;102009.00;;;33.90;41.46
55550;BME280;41397;49.972;18.944;2022-07-04T07:39:45;102016.50;;;34.08;41.03
55550;BME280;41397;49.972;18.944;2022-07-04T07:44:59;102016.23;;;34.10;40.88
55550;BME280;41397;49.972;18.944;2022-07-04T07:50:12;102018.34;;;34.31;41.56
55550;BME280;41397;49.972;18.944;2022-07-04T07:53:52;102016.64;;;34.47;41.02
55550;BME280;41397;49.972;18.944;2022-07-04T07:55:26;102021.66;;;34.57;40.80
55550;BME280;41397;49.972;18.944;2022-07-04T08:00:43;102011.17;;;34.74;39.93
55550;BME280;41397;49.972;18.944;2022-07-04T08:05:56;102019.91;;;34.56;38.81
55550;BME280;41397;49.972;18.944;2022-07-04T08:11:11;102015.11;;;34.73;35.12
55550;BME280;41397;49.972;18.944;2022-07-04T08:16:26;102010.77;;;34.37;36.34
55550;BME280;41397;49.972;18.944;2022-07-04T08:21:39;102006.66;;;34.44;36.55
55550;BME280;41397;49.972;18.944;2022-07-04T08:24:06;102003.30;;;34.47;37.83
55550;BME280;41397;49.972;18.944;2022-07-04T08:26:57;102021.66;;;34.57;36.65
55550;BME280;41397;49.972;18.944;2022-07-04T08:32:12;102016.34;;;34.77;35.61
55550;BME280;41397;49.972;18.944;2022-07-04T08:37:29;102010.55;;;34.89;35.13
55550;BME280;41397;49.972;18.944;2022-07-04T08:42:46;102007.11;;;34.70;35.33
55550;BME280;41397;49.972;18.944;2022-07-04T08:48:06;102011.84;;;34.64;36.96
55550;BME280;41397;49.972;18.944;2022-07-04T08:53:21;102011.41;;;34.73;36.52
55550;BME280;41397;49.972;18.944;2022-07-04T08:54:25;102015.11;;;34.73;37.04
55550;BME280;41397;49.972;18.944;2022-07-04T08:58:38;102012.38;;;34.61;35.60
55550;BME280;41397;49.972;18.944;2022-07-04T09:03:55;102006.66;;;34.44;36.87
55550;BME280;41397;49.972;18.944;2022-07-04T09:09:12;102000.57;;;34.69;35.46
55550;BME280;41397;49.972;18.944;2022-07-04T09:14:28;102002.63;;;34.91;35.19
55550;BME280;41397;49.972;18.944;2022-07-04T09:19:42;102005.88;;;35.00;34.96
55550;BME280;41397;49.972;18.944;2022-07-04T09:24:52;102000.47;;;34.98;34.47
55550;BME280;41397;49.972;18.944;2022-07-04T09:25:09;101995.65;;;34.99;35.08
55550;BME280;41397;49.972;18.944;2022-07-04T09:30:28;101983.22;;;35.05;35.37
55550;BME280;41397;49.972;18.944;2022-07-04T09:35:41;101981.15;;;35.00;33.55
55550;BME280;41397;49.972;18.944;2022-07-04T09:40:55;101973.51;;;35.01;33.49
55550;BME280;41397;49.972;18.944;2022-07-04T09:46:22;101973.20;;;35.19;33.14
55550;BME280;41397;49.972;18.944;2022-07-04T09:51:43;101972.42;;;35.24;33.98
55550;BME280;41397;49.972;18.944;2022-07-04T09:55:11;101983.20;;;35.22;33.00
55550;BME280;41397;49.972;18.944;2022-07-04T09:56:59;101965.36;;;35.26;33.00
55550;BME280;41397;49.972;18.944;2022-07-04T10:02:13;101963.91;;;35.46;33.42
55550;BME280;41397;49.972;18.944;2022-07-04T10:07:34;101963.91;;;35.24;32.63
55550;BME280;41397;49.972;18.944;2022-07-04T10:13:00;101960.20;;;35.45;32.95
55550;BME280;41397;49.972;18.944;2022-07-04T10:18:17;101955.91;;;35.65;33.25
55550;BME280;41397;49.972;18.944;2022-07-04T10:23:32;101952.91;;;35.76;32.33
55550;BME280;41397;49.972;18.944;2022-07-04T10:25:25;101959.49;;;35.77;32.28
55550;BME280;41397;49.972;18.944;2022-07-04T10:28:47;101957.08;;;35.91;31.89
55550;BME280;41397;49.972;18.944;2022-07-04T10:34:03;101951.89;;;35.88;31.05
55550;BME280;41397;49.972;18.944;2022-07-04T10:39:22;101955.66;;;35.66;32.96
55550;BME280;41397;49.972;18.944;2022-07-04T10:44:37;101950.66;;;35.78;32.69
55550;BME280;41397;49.972;18.944;2022-07-04T10:49:51;101957.76;;;36.03;31.89
55550;BME280;41397;49.972;18.944;2022-07-04T10:55:11;101953.60;;;36.11;32.66
55550;BME280;41397;49.972;18.944;2022-07-04T10:55:39;101953.66;;;36.16;32.58
55550;BME280;41397;49.972;18.944;2022-07-04T11:00:25;101959.46;;;36.26;31.95
55550;BME280;41397;49.972;18.944;2022-07-04T11:05:39;101955.82;;;36.36;32.83
55550;BME280;41397;49.972;18.944;2022-07-04T11:10:52;101956.82;;;36.52;32.66
55550;BME280;41397;49.972;18.944;2022-07-04T11:16:16;101938.32;;;36.22;33.16
55550;BME280;41397;49.972;18.944;2022-07-04T11:21:30;101932.48;;;36.39;31.40
55550;BME280;41397;49.972;18.944;2022-07-04T11:25:53;101924.72;;;36.29;31.82
55550;BME280;41397;49.972;18.944;2022-07-04T11:26:46;101931.88;;;36.37;32.50
55550;BME280;41397;49.972;18.944;2022-07-04T11:32:00;101928.95;;;36.54;30.68
55550;BME280;41397;49.972;18.944;2022-07-04T11:37:20;101922.78;;;36.72;31.28
55550;BME280;41397;49.972;18.944;2022-07-04T11:42:34;101910.10;;;36.95;29.95
55550;BME280;41397;49.972;18.944;2022-07-04T11:48:00;101902.11;;;36.92;29.41
55550;BME280;41397;49.972;18.944;2022-07-04T11:53:14;101907.05;;;37.07;28.51
55550;BME280;41397;49.972;18.944;2022-07-04T11:56:10;101885.09;;;37.07;28.17
55550;BME280;41397;49.972;18.944;2022-07-04T12:03:53;101898.90;;;36.78;27.79
55550;BME280;41397;49.972;18.944;2022-07-04T12:09:07;101897.42;;;36.71;29.19
55550;BME280;41397;49.972;18.944;2022-07-04T12:14:21;101901.48;;;36.48;29.63
55550;BME280;41397;49.972;18.944;2022-07-04T12:19:35;101896.19;;;36.61;29.54
55550;BME280;41397;49.972;18.944;2022-07-04T12:24:49;101911.93;;;36.69;29.71
55550;BME280;41397;49.972;18.944;2022-07-04T12:26:24;101905.77;;;36.50;30.17
55550;BME280;41397;49.972;18.944;2022-07-04T12:30:04;101909.33;;;36.62;30.67
55550;BME280;41397;49.972;18.944;2022-07-04T12:40:50;101889.64;;;36.23;30.28
55550;BME280;41397;49.972;18.944;2022-07-04T12:46:05;101899.38;;;36.33;31.15
55550;BME280;41397;49.972;18.944;2022-07-04T12:51:25;101892.23;;;36.30;31.48
55550;BME280;41397;49.972;18.944;2022-07-04T12:56:43;101892.38;;;35.86;30.83
55550;BME280;41397;49.972;18.944;2022-07-04T12:57:07;101896.03;;;35.82;31.19
55550;BME280;41397;49.972;18.944;2022-07-04T13:02:21;101898.08;;;35.86;31.78
55550;BME280;41397;49.972;18.944;2022-07-04T13:07:34;101889.25;;;35.88;31.75
55550;BME280;41397;49.972;18.944;2022-07-04T13:12:48;101900.56;;;35.77;31.93
55550;BME280;41397;49.972;18.944;2022-07-04T13:18:02;101899.65;;;35.72;31.99
55550;BME280;41397;49.972;18.944;2022-07-04T13:23:16;101903.89;;;35.69;32.45
55550;BME280;41397;49.972;18.944;2022-07-04T13:27:00;101900.57;;;35.55;32.23
55550;BME280;41397;49.972;18.944;2022-07-04T13:28:30;101903.95;;;35.52;32.42
55550;BME280;41397;49.972;18.944;2022-07-04T13:33:44;101906.99;;;35.46;33.07
55550;BME280;41397;49.972;18.944;2022-07-04T13:38:57;101905.01;;;35.46;33.75
55550;BME280;41397;49.972;18.944;2022-07-04T13:44:11;101907.68;;;35.31;34.29
55550;BME280;41397;49.972;18.944;2022-07-04T13:49:29;101909.00;;;35.23;33.88
55550;BME280;41397;49.972;18.944;2022-07-04T13:54:42;101909.28;;;35.05;34.13
55550;BME280;41397;49.972;18.944;2022-07-04T13:57:13;101902.88;;;34.93;33.83
55550;BME280;41397;49.972;18.944;2022-07-04T13:59:56;101916.52;;;34.74;34.14
55550;BME280;41397;49.972;18.944;2022-07-04T14:05:10;101909.63;;;34.69;34.40
55550;BME280;41397;49.972;18.944;2022-07-04T14:10:24;101919.97;;;34.59;34.66
55550;BME280;41397;49.972;18.944;2022-07-04T14:15:38;101933.30;;;34.24;38.30
55550;BME280;41397;49.972;18.944;2022-07-04T14:26:44;101928.67;;;32.62;43.81
55550;BME280;41397;49.972;18.944;2022-07-04T14:27:27;101920.30;;;32.55;44.64
55550;BME280;41397;49.972;18.944;2022-07-04T14:31:58;101910.13;;;32.24;46.40
55550;BME280;41397;49.972;18.944;2022-07-04T14:37:12;101906.54;;;31.75;46.47
55550;BME280;41397;49.972;18.944;2022-07-04T14:42:25;101884.77;;;31.45;48.56
55550;BME280;41397;49.972;18.944;2022-07-04T14:47:39;101881.71;;;31.47;50.81
55550;BME280;41397;49.972;18.944;2022-07-04T14:53:11;101872.89;;;31.55;49.18
55550;BME280;41397;49.972;18.944;2022-07-04T14:57:56;101875.92;;;31.83;51.57
55550;BME280;41397;49.972;18.944;2022-07-04T14:59:14;101877.18;;;31.88;51.47
55550;BME280;41397;49.972;18.944;2022-07-04T15:04:46;101879.57;;;32.02;50.69
55550;BME280;41397;49.972;18.944;2022-07-04T15:10:00;101887.85;;;32.27;51.82
55550;BME280;41397;49.972;18.944;2022-07-04T15:15:14;101872.53;;;32.47;48.24
55550;BME280;41397;49.972;18.944;2022-07-04T15:20:28;101867.70;;;32.59;48.47
55550;BME280;41397;49.972;18.944;2022-07-04T15:25:54;101869.30;;;32.67;51.03
55550;BME280;41397;49.972;18.944;2022-07-04T15:28:24;101861.42;;;32.69;49.86
55550;BME280;41397;49.972;18.944;2022-07-04T15:31:08;101865.35;;;32.68;48.98
55550;BME280;41397;49.972;18.944;2022-07-04T15:36:21;101858.08;;;32.60;46.68
55550;BME280;41397;49.972;18.944;2022-07-04T15:41:36;101863.29;;;32.63;47.14
55550;BME280;41397;49.972;18.944;2022-07-04T15:46:50;101850.09;;;32.69;45.87
55550;BME280;41397;49.972;18.944;2022-07-04T15:52:15;101856.47;;;32.76;43.52
55550;BME280;41397;49.972;18.944;2022-07-04T15:57:29;101850.30;;;32.79;40.70
55550;BME280;41397;49.972;18.944;2022-07-04T15:58:37;101852.28;;;32.79;40.83
55550;BME280;41397;49.972;18.944;2022-07-04T16:02:43;101850.41;;;32.84;39.79
55550;BME280;41397;49.972;18.944;2022-07-04T16:07:57;101844.87;;;32.89;38.67
55550;BME280;41397;49.972;18.944;2022-07-04T16:13:10;101857.33;;;32.88;37.95
55550;BME280;41397;49.972;18.944;2022-07-04T16:18:24;101843.39;;;32.87;38.96
55550;BME280;41397;49.972;18.944;2022-07-04T16:23:38;101845.88;;;32.83;38.17
55550;BME280;41397;49.972;18.944;2022-07-04T16:28:51;101847.00;;;32.82;37.70
55550;BME280;41397;49.972;18.944;2022-07-04T16:29:05;101851.77;;;32.82;38.06
55550;BME280;41397;49.972;18.944;2022-07-04T16:34:19;101834.53;;;32.83;37.75
55550;BME280;41397;49.972;18.944;2022-07-04T16:39:36;101838.88;;;32.74;38.08
55550;BME280;41397;49.972;18.944;2022-07-04T16:44:52;101828.13;;;32.76;38.22
55550;BME280;41397;49.972;18.944;2022-07-04T16:50:41;101817.93;;;32.75;38.62
55550;BME280;41397;49.972;18.944;2022-07-04T16:56:05;101828.90;;;32.71;37.50
55550;BME280;41397;49.972;18.944;2022-07-04T16:59:11;101820.29;;;32.66;38.27
55550;BME280;41397;49.972;18.944;2022-07-04T17:01:21;101815.98;;;32.52;38.62
55550;BME280;41397;49.972;18.944;2022-07-04T17:06:35;101817.45;;;32.55;38.76
55550;BME280;41397;49.972;18.944;2022-07-04T17:11:49;101817.83;;;32.46;38.49
55550;BME280;41397;49.972;18.944;2022-07-04T17:17:03;101812.79;;;32.48;38.75
55550;BME280;41397;49.972;18.944;2022-07-04T17:22:16;101812.89;;;32.42;38.84
55550;BME280;41397;49.972;18.944;2022-07-04T17:27:30;101804.63;;;32.40;39.18
55550;BME280;41397;49.972;18.944;2022-07-04T17:29:24;101818.80;;;32.40;39.38
55550;BME280;41397;49.972;18.944;2022-07-04T17:32:44;101809.81;;;32.32;39.43
55550;BME280;41397;49.972;18.944;2022-07-04T17:37:57;101816.33;;;32.32;39.70
55550;BME280;41397;49.972;18.944;2022-07-04T17:43:11;101813.15;;;32.28;39.58
55550;BME280;41397;49.972;18.944;2022-07-04T17:48:36;101810.81;;;32.25;39.57
55550;BME280;41397;49.972;18.944;2022-07-04T17:54:17;101810.06;;;32.18;42.50
55550;BME280;41397;49.972;18.944;2022-07-04T17:59:29;101806.97;;;31.96;44.97
55550;BME280;41397;49.972;18.944;2022-07-04T17:59:52;101812.46;;;31.91;44.94
55550;BME280;41397;49.972;18.944;2022-07-04T18:04:47;101808.41;;;31.87;46.39
55550;BME280;41397;49.972;18.944;2022-07-04T18:10:01;101816.27;;;31.73;47.28
55550;BME280;41397;49.972;18.944;2022-07-04T18:15:15;101814.87;;;31.64;47.43
55550;BME280;41397;49.972;18.944;2022-07-04T18:20:37;101818.79;;;31.51;48.23
55550;BME280;41397;49.972;18.944;2022-07-04T18:30:10;101814.34;;;31.25;49.19
55550;BME280;41397;49.972;18.944;2022-07-04T18:31:21;101808.31;;;31.22;49.46
55550;BME280;41397;49.972;18.944;2022-07-04T18:36:34;101820.98;;;31.01;52.53
55550;BME280;41397;49.972;18.944;2022-07-04T18:41:48;101827.05;;;30.86;53.15
55550;BME280;41397;49.972;18.944;2022-07-04T18:47:14;101832.58;;;30.74;53.33
55550;BME280;41397;49.972;18.944;2022-07-04T18:52:27;101837.77;;;30.59;53.70
55550;BME280;41397;49.972;18.944;2022-07-04T18:57:49;101844.63;;;30.44;53.75
55550;BME280;41397;49.972;18.944;2022-07-04T19:00:25;101845.18;;;30.35;54.04
55550;BME280;41397;49.972;18.944;2022-07-04T19:03:12;101846.12;;;30.28;54.06
55550;BME280;41397;49.972;18.944;2022-07-04T19:08:26;101846.38;;;30.20;54.27
55550;BME280;41397;49.972;18.944;2022-07-04T19:13:40;101859.02;;;30.11;53.53
55550;BME280;41397;49.972;18.944;2022-07-04T19:18:54;101862.60;;;30.00;53.96
55550;BME280;41397;49.972;18.944;2022-07-04T19:24:08;101868.74;;;29.90;54.46
55550;BME280;41397;49.972;18.944;2022-07-04T19:29:22;101878.59;;;29.81;54.36
55550;BME280;41397;49.972;18.944;2022-07-04T19:30:39;101889.22;;;29.79;54.59
55550;BME280;41397;49.972;18.944;2022-07-04T19:34:35;101884.50;;;29.73;54.51
55550;BME280;41397;49.972;18.944;2022-07-04T19:39:50;101888.23;;;29.67;55.14
55550;BME280;41397;49.972;18.944;2022-07-04T19:45:05;101887.37;;;29.59;55.73
55550;BME280;41397;49.972;18.944;2022-07-04T19:50:20;101890.64;;;29.56;54.83
55550;BME280;41397;49.972;18.944;2022-07-04T19:55:38;101899.77;;;29.52;55.78
55550;BME280;41397;49.972;18.944;2022-07-04T20:00:52;101897.85;;;29.46;56.03
55550;BME280;41397;49.972;18.944;2022-07-04T20:01:06;101896.35;;;29.43;56.09
55550;BME280;41397;49.972;18.944;2022-07-04T20:06:06;101905.26;;;29.40;56.08
55550;BME280;41397;49.972;18.944;2022-07-04T20:11:20;101899.88;;;29.32;56.04
55550;BME280;41397;49.972;18.944;2022-07-04T20:16:34;101903.60;;;29.26;56.34
55550;BME280;41397;49.972;18.944;2022-07-04T20:21:47;101897.12;;;29.18;56.07
55550;BME280;41397;49.972;18.944;2022-07-04T20:27:04;101914.27;;;29.10;55.41
55550;BME280;41397;49.972;18.944;2022-07-04T20:31:20;101902.80;;;29.05;55.39
55550;BME280;41397;49.972;18.944;2022-07-04T20:32:19;101903.70;;;29.06;54.72
55550;BME280;41397;49.972;18.944;2022-07-04T20:37:36;101914.07;;;29.05;54.69
55550;BME280;41397;49.972;18.944;2022-07-04T20:42:53;101911.48;;;29.04;55.37
55550;BME280;41397;49.972;18.944;2022-07-04T20:48:11;101905.63;;;28.98;55.73
55550;BME280;41397;49.972;18.944;2022-07-04T20:53:28;101916.72;;;28.87;55.72
55550;BME280;41397;49.972;18.944;2022-07-04T20:58:44;101921.05;;;28.83;55.96
55550;BME280;41397;49.972;18.944;2022-07-04T21:01:34;101919.52;;;28.80;56.14
55550;BME280;41397;49.972;18.944;2022-07-04T21:03:58;101923.20;;;28.81;56.76
55550;BME280;41397;49.972;18.944;2022-07-04T21:09:12;101916.95;;;28.79;57.76
55550;BME280;41397;49.972;18.944;2022-07-04T21:14:26;101910.87;;;28.75;58.64
55550;BME280;41397;49.972;18.944;2022-07-04T21:19:40;101910.03;;;28.68;59.41
55550;BME280;41397;49.972;18.944;2022-07-04T21:24:54;101900.70;;;28.67;59.29
55550;BME280;41397;49.972;18.944;2022-07-04T21:30:08;101909.15;;;28.67;58.34
55550;BME280;41397;49.972;18.944;2022-07-04T21:31:48;101902.03;;;28.65;59.12
55550;BME280;41397;49.972;18.944;2022-07-04T21:35:22;101901.38;;;28.63;59.48
55550;BME280;41397;49.972;18.944;2022-07-04T21:40:36;101902.89;;;28.59;59.64
55550;BME280;41397;49.972;18.944;2022-07-04T21:45:49;101898.35;;;28.58;59.63
55550;BME280;41397;49.972;18.944;2022-07-04T21:51:03;101902.49;;;28.48;59.94
55550;BME280;41397;49.972;18.944;2022-07-04T21:56:18;101900.98;;;28.46;59.36
55550;BME280;41397;49.972;18.944;2022-07-04T22:01:32;101904.61;;;28.40;58.95
55550;BME280;41397;49.972;18.944;2022-07-04T22:02:02;101903.74;;;28.39;59.07
55550;BME280;41397;49.972;18.944;2022-07-04T22:06:46;101904.62;;;28.33;59.41
55550;BME280;41397;49.972;18.944;2022-07-04T22:12:00;101913.70;;;28.28;58.93
55550;BME280;41397;49.972;18.944;2022-07-04T22:17:13;101905.48;;;28.20;59.04
55550;BME280;41397;49.972;18.944;2022-07-04T22:24:12;101919.76;;;28.12;58.63
55550;BME280;41397;49.972;18.944;2022-07-04T22:29:26;101920.83;;;28.04;59.69
55550;BME280;41397;49.972;18.944;2022-07-04T22:34:40;101909.36;;;27.93;59.46
55550;BME280;41397;49.972;18.944;2022-07-04T22:39:53;101909.55;;;27.84;59.27
55550;BME280;41397;49.972;18.944;2022-07-04T22:45:07;101906.27;;;27.74;58.15
55550;BME280;41397;49.972;18.944;2022-07-04T22:49:12;101914.69;;;27.67;58.64
55550;BME280;41397;49.972;18.944;2022-07-04T22:50:24;101912.98;;;27.66;59.09
55550;BME280;41397;49.972;18.944;2022-07-04T22:55:38;101917.93;;;27.64;59.05
55550;BME280;41397;49.972;18.944;2022-07-04T23:00:51;101921.60;;;27.58;59.11
55550;BME280;41397;49.972;18.944;2022-07-04T23:06:05;101930.88;;;27.59;59.96
55550;BME280;41397;49.972;18.944;2022-07-04T23:11:19;101942.76;;;27.54;58.85
55550;BME280;41397;49.972;18.944;2022-07-04T23:16:33;101959.37;;;27.42;58.42
55550;BME280;41397;49.972;18.944;2022-07-04T23:19:27;101964.06;;;27.29;59.24
55550;BME280;41397;49.972;18.944;2022-07-04T23:21:46;101967.68;;;27.22;59.53
55550;BME280;41397;49.972;18.944;2022-07-04T23:27:00;101971.91;;;27.12;59.16
55550;BME280;41397;49.972;18.944;2022-07-04T23:32:14;101965.60;;;27.03;57.18